Kaumakani, Hawaii
Current Conditions -  °F | °C
As of 10:56 AM on Tuesday 21 Oct 2014 (Local Time) from PHBK Reporting Station
Scattered Clouds Scattered Clouds  
Wind Chill: 85°   Ceiling: Unl
Heat Index: 91°   Visibility: 10mi
Dew Point: 72°   Wind: 7mph
Humidity: 65%   Direction: 310°NW
Pressure: 30.01"   Gusts: NA
Location:  21.91°N, 159.61°W
Report Text: PHBK 212056Z AUTO 31006KT 10SM SCT040 29/22 A3001 RMK AO2 SLP165 T02940222 50005
Loading
Personal Weather Stations






























Interactive Weather Map
Tropical Storm Tracking
New forecast layout! Learn more

10-Day Weather Forecast

Advertisements
Track Severe Weather on mobile